createdAt,value
2023-08-03T00:02:02.942Z,19.09
2023-08-03T00:05:06.214Z,19.07
2023-08-03T00:08:08.639Z,19.04
2023-08-03T00:11:11.332Z,19.01
2023-08-03T00:14:13.817Z,18.96
2023-08-03T00:17:16.639Z,18.92
2023-08-03T00:20:19.433Z,18.95
2023-08-03T00:23:22.171Z,18.86
2023-08-03T00:26:24.755Z,18.86
2023-08-03T00:29:27.650Z,18.80
2023-08-03T00:32:30.191Z,18.78
2023-08-03T00:35:32.913Z,18.74
2023-08-03T00:38:35.387Z,18.73
2023-08-03T00:41:39.347Z,18.66
2023-08-03T00:44:41.890Z,18.64
2023-08-03T00:47:44.727Z,18.65
2023-08-03T00:50:47.725Z,18.64
2023-08-03T00:53:50.513Z,18.66
2023-08-03T00:56:52.976Z,18.65
2023-08-03T00:59:56.199Z,18.66
2023-08-03T01:02:58.878Z,18.66
2023-08-03T01:06:01.736Z,18.67
2023-08-03T01:09:05.997Z,18.73
2023-08-03T01:12:09.421Z,18.70
2023-08-03T01:15:12.131Z,18.65
2023-08-03T01:18:15.485Z,18.65
2023-08-03T01:21:22.981Z,18.58
2023-08-03T01:24:26.531Z,18.57
2023-08-03T01:27:29.364Z,18.53
2023-08-03T01:30:32.670Z,18.56
2023-08-03T01:33:35.199Z,18.57
2023-08-03T01:36:38.064Z,18.64
2023-08-03T01:39:45.311Z,18.71
2023-08-03T01:42:48.329Z,18.74
2023-08-03T01:45:50.801Z,18.72
2023-08-03T01:48:53.523Z,18.75
2023-08-03T01:51:56.108Z,18.69
2023-08-03T01:54:59.632Z,18.66
2023-08-03T01:58:03.241Z,18.65
2023-08-03T02:01:06.033Z,18.63
2023-08-03T02:04:08.843Z,18.63
2023-08-03T02:07:39.619Z,18.62
2023-08-03T02:10:42.424Z,18.61
2023-08-03T02:13:44.900Z,18.56
2023-08-03T02:16:47.662Z,18.58
2023-08-03T02:19:50.400Z,18.56
2023-08-03T02:22:53.140Z,18.56
2023-08-03T02:25:55.926Z,18.63
2023-08-03T02:28:58.394Z,18.61
2023-08-03T02:32:02.086Z,18.56
2023-08-03T02:35:05.170Z,18.46
2023-08-03T02:38:08.568Z,18.56
2023-08-03T02:41:11.122Z,18.66
2023-08-03T02:44:13.897Z,18.60
2023-08-03T02:47:18.781Z,18.56
2023-08-03T02:50:22.241Z,18.58
2023-08-03T02:53:25.309Z,18.59
2023-08-03T02:56:28.129Z,18.57
2023-08-03T02:59:30.658Z,18.54
2023-08-03T03:02:33.627Z,18.52
2023-08-03T03:05:36.250Z,18.54
2023-08-03T03:08:38.998Z,18.51
2023-08-03T03:11:41.912Z,18.48
2023-08-03T03:14:45.188Z,18.47
2023-08-03T03:17:47.678Z,18.47
2023-08-03T03:20:50.462Z,18.49
2023-08-03T03:23:53.131Z,18.46
2023-08-03T03:26:56.436Z,18.36
2023-08-03T03:29:58.925Z,18.32
2023-08-03T03:33:02.450Z,18.35
2023-08-03T03:36:05.717Z,18.43
2023-08-03T03:39:08.905Z,18.48
2023-08-03T03:42:11.359Z,18.46
2023-08-03T03:45:15.228Z,18.51
2023-08-03T03:48:18.191Z,18.57
2023-08-03T03:51:22.578Z,18.61
2023-08-03T03:54:26.392Z,18.65
2023-08-03T03:57:29.141Z,18.72
2023-08-03T04:00:32.045Z,18.79
2023-08-03T04:03:35.016Z,18.81
2023-08-03T04:06:38.085Z,18.90
2023-08-03T04:09:40.775Z,19.00
2023-08-03T04:12:43.324Z,19.16
2023-08-03T04:15:46.088Z,19.30
2023-08-03T04:18:48.913Z,19.27
2023-08-03T04:21:51.662Z,19.19
2023-08-03T04:24:54.385Z,19.15
2023-08-03T04:27:57.331Z,19.13
2023-08-03T04:31:00.128Z,19.12
2023-08-03T04:34:04.067Z,19.29
2023-08-03T04:37:06.933Z,19.38
2023-08-03T04:40:10.433Z,19.50
2023-08-03T04:43:12.943Z,19.50
2023-08-03T04:46:16.030Z,19.65
2023-08-03T04:49:18.644Z,19.81
2023-08-03T04:52:22.511Z,19.98
2023-08-03T04:55:25.077Z,20.08
2023-08-03T04:58:28.115Z,20.33
2023-08-03T05:01:30.746Z,20.52
2023-08-03T05:04:34.361Z,20.60
2023-08-03T05:07:37.494Z,20.82
2023-08-03T05:10:40.227Z,21.04
2023-08-03T05:13:42.752Z,21.29
2023-08-03T05:16:45.493Z,21.35
2023-08-03T05:19:48.441Z,21.36
2023-08-03T05:22:51.399Z,21.58
2023-08-03T05:25:58.308Z,21.73
2023-08-03T05:29:01.238Z,21.79
2023-08-03T05:32:03.982Z,21.98
2023-08-03T05:35:07.265Z,22.19
2023-08-03T05:38:09.754Z,22.42
2023-08-03T05:41:17.400Z,22.62
2023-08-03T05:44:19.877Z,22.91
2023-08-03T05:47:23.000Z,23.37
2023-08-03T05:50:25.523Z,24.33
2023-08-03T05:53:28.290Z,25.31
2023-08-03T05:56:30.945Z,25.84
2023-08-03T05:59:37.004Z,26.72
2023-08-03T06:02:40.118Z,27.12
2023-08-03T06:05:44.584Z,27.13
2023-08-03T06:08:49.791Z,27.10
2023-08-03T06:11:52.797Z,27.88
2023-08-03T06:14:55.698Z,28.31
2023-08-03T06:18:05.205Z,28.66
2023-08-03T06:21:07.708Z,29.13
2023-08-03T06:24:10.441Z,29.02
2023-08-03T06:27:14.149Z,28.92
2023-08-03T06:30:18.478Z,29.47
2023-08-03T06:33:25.259Z,28.81
2023-08-03T06:36:28.926Z,29.39
2023-08-03T06:39:31.438Z,29.66
2023-08-03T06:42:34.350Z,29.82
2023-08-03T06:45:37.388Z,29.54
2023-08-03T06:48:40.193Z,27.82
2023-08-03T06:51:42.898Z,27.25
2023-08-03T06:54:45.925Z,26.84
2023-08-03T06:57:48.832Z,26.91
2023-08-03T07:00:51.711Z,26.01
2023-08-03T07:03:54.376Z,25.88
2023-08-03T07:06:57.352Z,25.47
2023-08-03T07:10:02.797Z,25.26
2023-08-03T07:13:06.274Z,25.14
2023-08-03T07:16:10.258Z,25.14
2023-08-03T07:19:14.390Z,25.10
2023-08-03T07:22:16.856Z,24.97
2023-08-03T07:25:19.704Z,24.76
2023-08-03T07:28:22.278Z,24.57
2023-08-03T07:31:26.137Z,24.78
2023-08-03T07:34:28.639Z,24.80
2023-08-03T07:37:31.451Z,24.70
2023-08-03T07:40:33.978Z,24.66
2023-08-03T07:43:36.700Z,24.77
2023-08-03T07:46:39.163Z,24.63
2023-08-03T07:49:42.009Z,24.77
2023-08-03T07:52:44.444Z,24.75
2023-08-03T07:55:47.135Z,24.73
2023-08-03T07:58:51.298Z,24.96
2023-08-03T08:01:54.289Z,25.09
2023-08-03T08:04:57.043Z,25.19
2023-08-03T08:07:59.633Z,25.22
2023-08-03T08:11:12.345Z,25.49
2023-08-03T08:14:15.862Z,25.43
2023-08-03T08:17:18.578Z,25.24
2023-08-03T08:20:21.121Z,25.15
2023-08-03T08:23:24.020Z,26.05
2023-08-03T08:26:26.817Z,27.11
2023-08-03T08:29:29.715Z,27.07
2023-08-03T08:32:32.317Z,26.54
2023-08-03T08:35:35.135Z,26.11
2023-08-03T08:38:37.626Z,25.90
2023-08-03T08:41:42.329Z,25.79
2023-08-03T08:44:45.317Z,25.80
2023-08-03T08:47:48.538Z,25.95
2023-08-03T08:57:08.598Z,28.29
2023-08-03T09:00:15.265Z,28.12
2023-08-03T09:03:19.086Z,27.74
2023-08-03T09:06:24.632Z,28.61
2023-08-03T09:09:35.574Z,27.66
2023-08-03T09:12:40.343Z,28.51
2023-08-03T09:15:43.244Z,28.63
2023-08-03T09:18:46.425Z,29.13
2023-08-03T09:25:10.003Z,29.44
2023-08-03T09:34:44.299Z,30.50
2023-08-03T09:37:48.209Z,30.66
2023-08-03T09:40:51.773Z,29.17
2023-08-03T09:43:55.308Z,29.38
2023-08-03T09:46:58.237Z,30.17
2023-08-03T09:50:01.601Z,30.84
2023-08-03T09:56:22.113Z,29.38
2023-08-03T09:59:27.446Z,29.21
2023-08-03T10:02:39.915Z,29.05
2023-08-03T10:06:01.889Z,29.73
2023-08-03T10:09:07.220Z,29.34
2023-08-03T10:12:22.947Z,29.73
2023-08-03T10:15:25.993Z,30.14
2023-08-03T10:21:37.802Z,29.50
2023-08-03T10:24:40.964Z,30.54
2023-08-03T10:28:13.918Z,30.51
2023-08-03T10:31:22.515Z,31.81
2023-08-03T10:34:29.163Z,30.96
2023-08-03T10:37:32.188Z,30.37
2023-08-03T10:40:34.619Z,29.92
2023-08-03T10:43:37.659Z,30.28
2023-08-03T10:46:42.542Z,29.84
2023-08-03T10:49:45.386Z,29.80
2023-08-03T10:52:47.919Z,29.73
2023-08-03T10:55:52.215Z,30.14
2023-08-03T10:58:54.746Z,30.96
2023-08-03T11:01:57.897Z,31.31
2023-08-03T11:05:08.475Z,30.93
2023-08-03T11:08:16.681Z,30.29
2023-08-03T11:11:23.562Z,30.07
2023-08-03T11:14:28.932Z,30.05
2023-08-03T11:17:35.014Z,30.14
2023-08-03T11:20:42.749Z,30.32
2023-08-03T11:23:45.515Z,29.76
2023-08-03T11:26:49.460Z,29.39
2023-08-03T11:29:53.493Z,29.69
2023-08-03T11:33:00.118Z,29.19
2023-08-03T11:36:03.409Z,28.91
2023-08-03T11:39:06.165Z,28.90
2023-08-03T11:42:09.293Z,29.04
2023-08-03T11:45:13.567Z,28.98
2023-08-03T11:48:20.612Z,28.80
2023-08-03T11:51:37.727Z,29.05
2023-08-03T11:54:41.273Z,28.92
2023-08-03T11:58:02.691Z,29.00
2023-08-03T12:01:06.024Z,29.45
2023-08-03T12:10:21.527Z,29.62
2023-08-03T12:13:24.401Z,29.62
2023-08-03T12:16:27.250Z,29.59
2023-08-03T12:19:33.728Z,29.44
2023-08-03T12:22:37.956Z,29.67
2023-08-03T12:25:42.421Z,31.03
2023-08-03T12:28:45.444Z,31.29
2023-08-03T12:31:48.556Z,31.18
2023-08-03T12:34:51.711Z,30.92
2023-08-03T12:37:58.311Z,30.65
2023-08-03T12:41:02.141Z,30.59
2023-08-03T12:44:05.093Z,31.04
2023-08-03T12:47:09.103Z,30.08
2023-08-03T12:50:12.918Z,30.65
2023-08-03T12:53:15.752Z,30.84
2023-08-03T12:56:19.584Z,30.78
2023-08-03T12:59:22.573Z,30.79
2023-08-03T13:02:25.878Z,31.23
2023-08-03T13:05:28.777Z,30.95
2023-08-03T13:08:31.889Z,30.84
2023-08-03T13:11:34.962Z,30.94
2023-08-03T13:14:38.215Z,30.87
2023-08-03T13:17:41.436Z,31.28
2023-08-03T13:20:49.502Z,30.92
2023-08-03T13:23:52.900Z,31.23
2023-08-03T13:27:20.188Z,31.19
2023-08-03T13:30:23.486Z,31.39
2023-08-03T13:33:26.259Z,30.86
2023-08-03T13:36:29.265Z,30.69
2023-08-03T13:39:32.003Z,29.92
2023-08-03T13:42:34.795Z,30.18
2023-08-03T13:45:37.474Z,30.48
2023-08-03T13:48:40.275Z,30.51
2023-08-03T13:51:43.067Z,30.44
2023-08-03T13:54:45.973Z,30.26
2023-08-03T13:58:04.861Z,30.36
2023-08-03T14:04:17.577Z,29.80
2023-08-03T14:07:50.291Z,30.10
2023-08-03T14:10:43.335Z,30.14
2023-08-03T14:16:55.327Z,29.61
2023-08-03T14:20:59.360Z,30.00
2023-08-03T14:23:22.042Z,29.68
2023-08-03T14:26:24.539Z,29.13
2023-08-03T14:29:27.375Z,29.35
2023-08-03T14:32:30.045Z,28.94
2023-08-03T14:35:36.132Z,28.65
2023-08-03T14:38:38.747Z,28.95
2023-08-03T14:47:59.111Z,28.91
2023-08-03T14:51:01.899Z,28.86
2023-08-03T14:54:04.823Z,28.76
2023-08-03T14:57:07.634Z,29.19
2023-08-03T15:00:14.164Z,28.91
2023-08-03T15:03:16.815Z,28.87
2023-08-03T15:06:23.666Z,28.73
2023-08-03T15:09:26.737Z,28.82
2023-08-03T15:12:29.578Z,28.60
2023-08-03T15:15:32.286Z,28.45
2023-08-03T15:18:35.441Z,28.38
2023-08-03T15:21:38.220Z,28.44
2023-08-03T15:24:41.472Z,28.56
2023-08-03T15:33:59.102Z,28.48
2023-08-03T15:40:08.415Z,28.44
2023-08-03T15:43:14.349Z,28.41
2023-08-03T15:46:20.838Z,28.28
2023-08-03T15:49:31.656Z,28.22
2023-08-03T15:52:57.621Z,27.93
2023-08-03T15:59:07.780Z,27.85
2023-08-03T16:02:10.669Z,27.79
2023-08-03T16:05:13.590Z,27.85
2023-08-03T16:08:16.061Z,27.78
2023-08-03T16:11:30.093Z,27.65
2023-08-03T16:14:45.521Z,27.42
2023-08-03T16:17:48.226Z,27.19
2023-08-03T16:20:51.030Z,27.11
2023-08-03T16:23:54.031Z,27.12
2023-08-03T16:26:56.723Z,27.00
2023-08-03T16:30:02.531Z,26.77
2023-08-03T16:33:06.101Z,26.46
2023-08-03T16:36:19.321Z,26.28
2023-08-03T16:39:23.158Z,26.09
2023-08-03T16:42:26.076Z,25.87
2023-08-03T16:45:28.653Z,25.75
2023-08-03T16:48:40.230Z,25.52
2023-08-03T16:51:44.392Z,25.43
2023-08-03T16:54:47.488Z,25.30
2023-08-03T16:57:49.942Z,25.20
2023-08-03T17:00:53.332Z,25.14
2023-08-03T17:03:56.167Z,25.09
2023-08-03T17:07:00.003Z,25.03
2023-08-03T17:10:02.507Z,24.90
2023-08-03T17:13:05.282Z,24.79
2023-08-03T17:16:07.864Z,24.73
2023-08-03T17:19:10.917Z,24.72
2023-08-03T17:22:13.510Z,24.69
2023-08-03T17:25:16.634Z,24.73
2023-08-03T17:28:19.842Z,24.72
2023-08-03T17:31:22.861Z,24.74
2023-08-03T17:34:26.347Z,24.77
2023-08-03T17:37:29.368Z,24.72
2023-08-03T17:40:31.904Z,24.73
2023-08-03T17:43:34.772Z,24.67
2023-08-03T17:46:39.711Z,24.63
2023-08-03T17:49:42.491Z,24.60
2023-08-03T17:52:44.967Z,24.61
2023-08-03T17:55:47.732Z,24.53
2023-08-03T17:58:50.798Z,24.51
2023-08-03T18:01:53.909Z,24.44
2023-08-03T18:04:58.146Z,24.37
2023-08-03T18:08:00.847Z,24.27
2023-08-03T18:11:04.164Z,24.18
2023-08-03T18:14:06.612Z,24.13
2023-08-03T18:17:10.400Z,24.02
2023-08-03T18:20:13.257Z,23.94
2023-08-03T18:23:16.247Z,23.91
2023-08-03T18:26:20.163Z,23.82
2023-08-03T18:29:23.256Z,23.71
2023-08-03T18:32:26.042Z,23.69
2023-08-03T18:35:29.129Z,23.60
2023-08-03T18:38:35.996Z,23.39
2023-08-03T18:41:38.726Z,23.06
2023-08-03T18:44:41.136Z,23.00
2023-08-03T18:47:44.107Z,22.95
2023-08-03T18:50:46.684Z,22.56
2023-08-03T18:53:51.823Z,22.35
2023-08-03T18:56:54.928Z,22.15
2023-08-03T18:59:57.968Z,21.74
2023-08-03T19:03:00.785Z,21.68
2023-08-03T19:06:04.674Z,21.86
2023-08-03T19:09:07.260Z,21.90
2023-08-03T19:12:11.015Z,21.87
2023-08-03T19:15:15.978Z,21.76
2023-08-03T19:18:19.843Z,21.59
2023-08-03T19:21:23.389Z,21.31
2023-08-03T19:24:26.345Z,21.46
2023-08-03T19:27:29.508Z,21.46
2023-08-03T19:30:34.423Z,21.45
2023-08-03T19:33:37.129Z,21.37
2023-08-03T19:36:40.086Z,21.26
2023-08-03T19:39:42.854Z,21.28
2023-08-03T19:42:45.812Z,20.94
2023-08-03T19:45:48.485Z,20.93
2023-08-03T19:48:51.321Z,21.13
2023-08-03T19:51:54.021Z,20.62
2023-08-03T20:07:20.636Z,20.55
2023-08-03T20:10:23.376Z,20.51
2023-08-03T20:13:25.828Z,20.55
2023-08-03T20:19:39.787Z,20.27
2023-08-03T20:22:43.118Z,20.27
2023-08-03T20:25:45.774Z,20.31
2023-08-03T20:28:49.868Z,20.12
2023-08-03T20:31:53.211Z,20.14
2023-08-03T20:34:56.281Z,19.91
2023-08-03T20:41:07.188Z,20.13
2023-08-03T20:53:27.286Z,19.66
2023-08-03T20:56:29.747Z,19.93
2023-08-03T20:59:32.463Z,19.83
2023-08-03T21:02:35.050Z,19.72
2023-08-03T21:05:46.350Z,19.86
2023-08-03T21:08:49.092Z,19.81
2023-08-03T21:11:51.825Z,19.57
2023-08-03T21:14:54.757Z,19.41
2023-08-03T21:17:57.821Z,19.46
2023-08-03T21:21:00.347Z,19.44
2023-08-03T21:24:09.761Z,19.41
2023-08-03T21:27:12.549Z,19.40
2023-08-03T21:30:15.464Z,19.35
2023-08-03T21:33:18.384Z,19.37
2023-08-03T21:36:21.380Z,19.30
2023-08-03T21:39:23.921Z,19.29
2023-08-03T21:42:26.729Z,19.37
2023-08-03T21:45:29.418Z,19.34
2023-08-03T21:48:32.284Z,19.37
2023-08-03T21:51:34.780Z,19.50
2023-08-03T21:54:38.504Z,19.11
2023-08-03T21:57:41.029Z,19.31
2023-08-03T22:00:44.205Z,19.37
2023-08-03T22:03:48.347Z,19.41
2023-08-03T22:06:50.842Z,19.41
2023-08-03T22:09:53.624Z,18.92
2023-08-03T22:12:56.437Z,18.65
2023-08-03T22:15:59.552Z,18.83
2023-08-03T22:19:02.054Z,18.89
2023-08-03T22:22:05.595Z,18.52
2023-08-03T22:25:08.626Z,18.28
2023-08-03T22:28:11.678Z,18.25
2023-08-03T22:31:14.962Z,18.31
2023-08-03T22:34:17.772Z,18.19
2023-08-03T22:37:20.359Z,18.17
2023-08-03T22:40:23.082Z,18.13
2023-08-03T22:43:25.717Z,18.13
2023-08-03T22:46:28.626Z,18.10
2023-08-03T22:49:31.206Z,17.97
2023-08-03T22:52:34.238Z,17.98
2023-08-03T22:55:36.713Z,18.03
2023-08-03T22:58:40.224Z,18.06
2023-08-03T23:01:42.854Z,18.08
2023-08-03T23:04:45.630Z,18.16
2023-08-03T23:07:48.110Z,18.15
2023-08-03T23:10:51.202Z,18.15
2023-08-03T23:13:53.969Z,18.04
2023-08-03T23:16:56.698Z,18.04
2023-08-03T23:20:00.588Z,18.07
2023-08-03T23:23:04.178Z,18.01
2023-08-03T23:26:08.779Z,18.08
2023-08-03T23:29:11.749Z,17.98
2023-08-03T23:32:15.179Z,18.12
2023-08-03T23:35:17.965Z,18.12
2023-08-03T23:38:20.460Z,18.22
2023-08-03T23:41:23.239Z,18.21
2023-08-03T23:44:25.715Z,18.28
2023-08-03T23:47:28.777Z,18.26
2023-08-03T23:50:31.223Z,18.21
2023-08-03T23:53:33.977Z,18.29
2023-08-03T23:56:36.641Z,18.44
2023-08-03T23:59:39.392Z,18.49
